createdAt,value
2022-12-25T00:02:16.105Z,99801.81
2022-12-25T00:04:44.011Z,99815.19
2022-12-25T00:07:11.880Z,99808.38
2022-12-25T00:09:39.634Z,99811.13
2022-12-25T00:12:07.729Z,99822.59
2022-12-25T00:14:35.772Z,99818.88
2022-12-25T00:17:03.731Z,99825.97
2022-12-25T00:19:31.497Z,99821.75
2022-12-25T00:21:59.160Z,99827.03
2022-12-25T00:24:26.876Z,99829.69
2022-12-25T00:26:54.913Z,99825.34
2022-12-25T00:29:22.811Z,99827.28
2022-12-25T00:31:50.557Z,99831.63
2022-12-25T00:34:18.962Z,99837.44
2022-12-25T00:36:46.587Z,99847.03
2022-12-25T00:39:14.301Z,99836.81
2022-12-25T00:41:59.555Z,99845.06
2022-12-25T00:44:27.280Z,99842.72
2022-12-25T00:46:55.017Z,99837.78
2022-12-25T00:49:23.069Z,99835.66
2022-12-25T00:51:50.715Z,99829.06
2022-12-25T00:54:18.361Z,99835.59
2022-12-25T00:56:46.261Z,99822.75
2022-12-25T00:59:13.891Z,99831.19
2022-12-25T01:01:42.179Z,99826.50
2022-12-25T01:04:10.175Z,99821.91
2022-12-25T01:06:37.823Z,99822.53
2022-12-25T01:09:22.888Z,99817.84
2022-12-25T01:11:51.198Z,99815.94
2022-12-25T01:14:18.808Z,99821.13
2022-12-25T01:16:46.562Z,99818.59
2022-12-25T01:19:14.312Z,99826.44
2022-12-25T01:21:41.958Z,99821.03
2022-12-25T01:24:09.892Z,99812.81
2022-12-25T01:26:37.581Z,99808.00
2022-12-25T01:29:05.196Z,99816.50
2022-12-25T01:31:32.952Z,99812.63
2022-12-25T01:34:00.652Z,99815.91
2022-12-25T01:36:29.701Z,99821.72
2022-12-25T01:38:57.371Z,99826.69
2022-12-25T01:41:24.984Z,99823.56
2022-12-25T01:43:52.613Z,99816.91
2022-12-25T01:46:20.395Z,99824.53
2022-12-25T01:48:48.067Z,99826.97
2022-12-25T01:51:15.757Z,99823.09
2022-12-25T01:53:43.427Z,99823.59
2022-12-25T01:56:11.022Z,99814.41
2022-12-25T01:58:39.019Z,99814.19
2022-12-25T02:01:07.355Z,99805.84
2022-12-25T02:03:35.062Z,99792.31
2022-12-25T02:06:02.693Z,99786.88
2022-12-25T02:08:30.377Z,99783.13
2022-12-25T02:10:57.970Z,99787.50
2022-12-25T02:13:26.229Z,99790.03
2022-12-25T02:15:53.909Z,99797.03
2022-12-25T02:18:21.513Z,99806.47
2022-12-25T02:20:49.117Z,99802.59
2022-12-25T02:23:16.842Z,99796.91
2022-12-25T02:25:44.977Z,99796.56
2022-12-25T02:28:12.560Z,99800.78
2022-12-25T02:30:40.224Z,99810.19
2022-12-25T02:33:21.672Z,99808.28
2022-12-25T02:35:49.722Z,99814.34
2022-12-25T02:38:17.373Z,99815.94
2022-12-25T02:40:43.981Z,99817.63
2022-12-25T02:43:29.379Z,99826.31
2022-12-25T02:46:14.588Z,99817.38
2022-12-25T02:49:00.017Z,99817.13
2022-12-25T02:51:45.001Z,99813.50
2022-12-25T02:54:30.143Z,99815.19
2022-12-25T02:57:15.163Z,99817.84
2022-12-25T03:00:00.215Z,99811.56
2022-12-25T03:02:45.527Z,99811.44
2022-12-25T03:05:26.937Z,99801.63
2022-12-25T03:07:55.609Z,99797.88
2022-12-25T03:10:40.791Z,99811.06
2022-12-25T03:13:08.450Z,99802.13
2022-12-25T03:16:08.122Z,99796.78
2022-12-25T03:18:36.494Z,99800.16
2022-12-25T03:21:21.354Z,99801.03
2022-12-25T03:24:06.549Z,99797.41
2022-12-25T03:26:51.917Z,99813.25
2022-12-25T03:29:34.113Z,99801.75
2022-12-25T03:32:01.756Z,99800.78
2022-12-25T03:34:46.752Z,99795.34
2022-12-25T03:37:28.157Z,99791.69
2022-12-25T03:40:19.006Z,99788.06
2022-12-25T03:43:04.338Z,99783.59
2022-12-25T03:45:49.746Z,99775.72
2022-12-25T03:51:43.850Z,99781.06
2022-12-25T03:54:28.952Z,99777.41
2022-12-25T03:57:13.941Z,99774.66
2022-12-25T03:59:58.712Z,99756.84
2022-12-25T04:02:43.722Z,99759.38
2022-12-25T04:05:28.902Z,99759.97
2022-12-25T04:08:14.277Z,99765.31
2022-12-25T04:10:59.156Z,99767.84
2022-12-25T04:13:44.111Z,99750.91
2022-12-25T04:16:37.535Z,99738.44
2022-12-25T04:19:22.509Z,99737.59
2022-12-25T04:22:07.409Z,99732.28
2022-12-25T04:24:52.887Z,99745.69
2022-12-25T04:27:37.910Z,99743.03
2022-12-25T04:30:23.466Z,99744.72
2022-12-25T04:33:08.400Z,99758.78
2022-12-25T04:35:53.280Z,99769.28
2022-12-25T04:38:22.427Z,99772.78
2022-12-25T04:40:50.034Z,99762.25
2022-12-25T04:43:17.632Z,99755.25
2022-12-25T04:45:45.196Z,99752.47
2022-12-25T04:48:13.153Z,99761.44
2022-12-25T04:50:40.771Z,99762.38
2022-12-25T04:53:08.374Z,99765.91
2022-12-25T04:55:35.952Z,99773.88
2022-12-25T04:58:03.553Z,99762.16
2022-12-25T05:00:31.515Z,99765.63
2022-12-25T05:02:59.478Z,99760.19
2022-12-25T05:05:27.213Z,99753.19
2022-12-25T05:07:54.888Z,99748.84
2022-12-25T05:10:22.462Z,99745.47
2022-12-25T05:12:50.779Z,99729.03
2022-12-25T05:15:18.565Z,99727.81
2022-12-25T05:17:46.127Z,99730.16
2022-12-25T05:20:13.791Z,99731.47
2022-12-25T05:22:41.391Z,99743.47
2022-12-25T05:25:09.344Z,99741.19
2022-12-25T05:27:37.188Z,99735.16
2022-12-25T05:30:04.760Z,99734.56
2022-12-25T05:32:32.402Z,99723.28
2022-12-25T05:35:00.878Z,99720.84
2022-12-25T05:37:28.840Z,99731.75
2022-12-25T05:39:56.605Z,99727.50
2022-12-25T05:42:24.203Z,99724.25
2022-12-25T05:44:51.798Z,99718.34
2022-12-25T05:47:19.365Z,99724.03
2022-12-25T05:49:47.387Z,99729.72
2022-12-25T05:52:15.186Z,99719.44
2022-12-25T05:54:42.784Z,99722.22
2022-12-25T05:57:10.864Z,99721.63
2022-12-25T05:59:38.470Z,99718.25
2022-12-25T06:02:06.505Z,99712.91
2022-12-25T06:04:34.448Z,99708.56
2022-12-25T06:07:02.016Z,99704.94
2022-12-25T06:09:29.597Z,99706.88
2022-12-25T06:11:57.263Z,99703.38
2022-12-25T06:14:25.204Z,99701.56
2022-12-25T06:16:53.198Z,99706.78
2022-12-25T06:19:20.915Z,99718.25
2022-12-25T06:21:48.582Z,99715.84
2022-12-25T06:24:21.003Z,99714.25
2022-12-25T06:26:49.475Z,99721.53
2022-12-25T06:29:17.272Z,99719.69
2022-12-25T06:31:44.984Z,99703.75
2022-12-25T06:34:16.356Z,99710.03
2022-12-25T06:36:43.913Z,99695.16
2022-12-25T06:39:11.910Z,99698.91
2022-12-25T06:41:40.570Z,99695.53
2022-12-25T06:44:08.132Z,99688.78
2022-12-25T06:46:35.716Z,99684.66
2022-12-25T06:49:03.361Z,99661.97
2022-12-25T06:51:31.339Z,99663.16
2022-12-25T06:53:59.199Z,99649.38
2022-12-25T06:56:27.178Z,99650.34
2022-12-25T06:58:54.755Z,99648.94
2022-12-25T07:01:22.501Z,99650.63
2022-12-25T07:03:52.457Z,99664.63
2022-12-25T07:06:20.079Z,99664.88
2022-12-25T07:08:47.703Z,99661.47
2022-12-25T07:11:15.289Z,99654.72
2022-12-25T07:13:42.863Z,99660.50
2022-12-25T07:16:10.890Z,99661.72
2022-12-25T07:18:38.762Z,99666.28
2022-12-25T07:21:06.343Z,99655.19
2022-12-25T07:23:33.955Z,99651.06
2022-12-25T07:26:02.076Z,99643.34
2022-12-25T07:28:29.893Z,99637.28
2022-12-25T07:30:57.655Z,99630.28
2022-12-25T07:33:25.327Z,99626.66
2022-12-25T07:35:52.906Z,99614.38
2022-12-25T07:38:20.499Z,99609.06
2022-12-25T07:40:48.500Z,99615.13
2022-12-25T07:43:16.252Z,99622.56
2022-12-25T07:45:44.035Z,99635.38
2022-12-25T07:48:16.400Z,99636.72
2022-12-25T07:50:44.501Z,99620.41
2022-12-25T07:53:12.497Z,99597.97
2022-12-25T07:55:40.398Z,99602.19
2022-12-25T07:58:07.970Z,99601.94
2022-12-25T08:00:35.654Z,99609.69
2022-12-25T08:03:03.445Z,99608.34
2022-12-25T08:05:31.531Z,99600.09
2022-12-25T08:08:00.679Z,99594.44
2022-12-25T08:10:28.314Z,99582.59
2022-12-25T08:12:55.945Z,99577.75
2022-12-25T08:15:23.575Z,99584.50
2022-12-25T08:17:51.548Z,99576.03
2022-12-25T08:20:19.177Z,99567.41
2022-12-25T08:22:46.767Z,99565.13
2022-12-25T08:25:16.035Z,99573.44
2022-12-25T08:27:43.698Z,99574.88
2022-12-25T08:30:12.205Z,99592.97
2022-12-25T08:32:40.187Z,99596.22
2022-12-25T08:35:07.778Z,99593.19
2022-12-25T08:37:35.393Z,99590.16
2022-12-25T08:40:03.071Z,99588.97
2022-12-25T08:42:31.028Z,99585.09
2022-12-25T08:44:59.038Z,99576.94
2022-12-25T08:47:26.702Z,99559.78
2022-12-25T08:49:54.353Z,99546.94
2022-12-25T08:52:22.160Z,99563.22
2022-12-25T08:54:50.201Z,99566.34
2022-12-25T08:57:18.087Z,99559.91
2022-12-25T08:59:45.656Z,99557.69
2022-12-25T09:02:13.439Z,99546.78
2022-12-25T09:04:41.247Z,99538.66
2022-12-25T09:07:09.257Z,99546.41
2022-12-25T09:09:37.437Z,99575.53
2022-12-25T09:12:05.421Z,99591.00
2022-12-25T09:14:33.017Z,99602.34
2022-12-25T09:17:00.736Z,99604.91
2022-12-25T09:19:28.864Z,99607.16
2022-12-25T09:21:56.807Z,99606.06
2022-12-25T09:24:24.541Z,99591.50
2022-12-25T09:26:52.208Z,99577.81
2022-12-25T09:29:19.906Z,99567.75
2022-12-25T09:31:48.174Z,99569.28
2022-12-25T09:34:19.184Z,99552.19
2022-12-25T09:36:46.978Z,99543.09
2022-12-25T09:39:14.709Z,99543.22
2022-12-25T09:41:42.409Z,99532.97
2022-12-25T09:44:10.076Z,99535.06
2022-12-25T09:46:38.084Z,99552.28
2022-12-25T09:49:05.751Z,99577.34
2022-12-25T09:51:33.417Z,99572.31
2022-12-25T09:54:01.107Z,99576.19
2022-12-25T09:56:29.385Z,99572.56
2022-12-25T09:58:57.995Z,99573.53
2022-12-25T10:01:25.835Z,99575.50
2022-12-25T10:03:53.689Z,99570.41
2022-12-25T10:06:21.506Z,99573.94
2022-12-25T10:08:49.630Z,99590.03
2022-12-25T10:11:17.762Z,99593.06
2022-12-25T10:13:45.530Z,99596.13
2022-12-25T10:16:13.487Z,99598.22
2022-12-25T10:18:41.121Z,99591.31
2022-12-25T10:21:13.058Z,99592.41
2022-12-25T10:23:41.416Z,99589.91
2022-12-25T10:26:09.086Z,99582.91
2022-12-25T10:28:36.797Z,99583.03
2022-12-25T10:31:04.678Z,99583.03
2022-12-25T10:33:32.857Z,99568.84
2022-12-25T10:36:00.852Z,99560.03
2022-12-25T10:38:28.634Z,99551.22
2022-12-25T10:40:56.766Z,99547.56
2022-12-25T10:43:24.550Z,99529.78
2022-12-25T10:45:52.814Z,99516.38
2022-12-25T10:48:20.935Z,99499.16
2022-12-25T10:50:48.756Z,99495.38
2022-12-25T10:53:16.496Z,99491.63
2022-12-25T10:55:44.620Z,99502.25
2022-12-25T10:58:12.980Z,99502.00
2022-12-25T11:00:41.053Z,99496.66
2022-12-25T11:03:09.317Z,99499.22
2022-12-25T11:05:37.262Z,99495.56
2022-12-25T11:08:05.013Z,99497.38
2022-12-25T11:10:33.391Z,99496.53
2022-12-25T11:13:01.211Z,99490.25
2022-12-25T11:15:28.985Z,99478.72
2022-12-25T11:17:56.740Z,99468.09
2022-12-25T11:20:24.489Z,99476.22
2022-12-25T11:22:52.628Z,99470.03
2022-12-25T11:25:21.846Z,99470.03
2022-12-25T11:27:53.443Z,99459.41
2022-12-25T11:30:21.594Z,99460.09
2022-12-25T11:32:49.387Z,99456.63
2022-12-25T11:35:17.785Z,99452.84
2022-12-25T11:37:46.042Z,99464.19
2022-12-25T11:40:13.848Z,99463.09
2022-12-25T11:42:41.596Z,99452.28
2022-12-25T11:45:09.491Z,99451.19
2022-12-25T11:47:37.697Z,99444.88
2022-12-25T11:50:05.630Z,99430.63
2022-12-25T11:52:33.547Z,99420.78
2022-12-25T11:55:01.344Z,99408.34
2022-12-25T11:57:29.210Z,99388.59
2022-12-25T11:59:57.122Z,99378.47
2022-12-25T12:02:25.224Z,99376.53
2022-12-25T12:04:53.062Z,99363.91
2022-12-25T12:07:21.351Z,99357.50
2022-12-25T12:09:49.125Z,99350.19
2022-12-25T12:12:17.295Z,99345.44
2022-12-25T12:14:45.432Z,99337.31
2022-12-25T12:17:13.236Z,99353.88
2022-12-25T12:19:41.111Z,99351.03
2022-12-25T12:22:09.007Z,99356.38
2022-12-25T12:24:37.433Z,99341.25
2022-12-25T12:27:05.440Z,99331.44
2022-12-25T12:29:33.811Z,99327.78
2022-12-25T12:32:01.796Z,99324.16
2022-12-25T12:34:29.701Z,99324.97
2022-12-25T12:36:57.972Z,99323.84
2022-12-25T12:39:25.945Z,99318.41
2022-12-25T12:41:53.648Z,99318.09
2022-12-25T12:44:22.791Z,99313.63
2022-12-25T12:46:50.597Z,99305.50
2022-12-25T12:49:18.824Z,99312.66
2022-12-25T12:51:46.896Z,99302.97
2022-12-25T12:54:14.601Z,99309.28
2022-12-25T12:56:42.463Z,99315.59
2022-12-25T12:59:10.448Z,99297.22
2022-12-25T13:01:38.367Z,99295.53
2022-12-25T13:04:06.355Z,99293.88
2022-12-25T13:06:34.264Z,99278.88
2022-12-25T13:09:02.183Z,99292.19
2022-12-25T13:11:29.923Z,99275.22
2022-12-25T13:13:58.165Z,99281.22
2022-12-25T13:16:26.042Z,99282.91
2022-12-25T13:18:53.841Z,99284.75
2022-12-25T13:21:21.774Z,99274.09
2022-12-25T13:23:49.623Z,99271.28
2022-12-25T13:26:17.554Z,99265.00
2022-12-25T13:28:45.760Z,99268.22
2022-12-25T13:31:13.691Z,99261.03
2022-12-25T13:33:42.063Z,99265.25
2022-12-25T13:36:09.968Z,99257.13
2022-12-25T13:38:37.781Z,99253.34
2022-12-25T13:41:22.917Z,99248.72
2022-12-25T13:43:50.957Z,99237.88
2022-12-25T13:46:18.849Z,99238.44
2022-12-25T13:48:46.780Z,99231.31
2022-12-25T13:51:14.717Z,99231.16
2022-12-25T13:53:42.974Z,99235.38
2022-12-25T13:56:11.173Z,99231.56
2022-12-25T13:58:39.725Z,99232.13
2022-12-25T14:01:08.164Z,99238.84
2022-12-25T14:03:36.140Z,99241.22
2022-12-25T14:06:04.206Z,99240.22
2022-12-25T14:08:32.346Z,99236.31
2022-12-25T14:11:00.232Z,99234.19
2022-12-25T14:13:28.839Z,99231.22
2022-12-25T14:15:57.168Z,99227.31
2022-12-25T14:18:25.060Z,99210.19
2022-12-25T14:20:52.901Z,99207.22
2022-12-25T14:23:20.819Z,99213.94
2022-12-25T14:25:49.079Z,99209.31
2022-12-25T14:28:16.883Z,99204.41
2022-12-25T14:30:44.911Z,99209.13
2022-12-25T14:33:12.956Z,99206.19
2022-12-25T14:35:40.752Z,99199.72
2022-12-25T14:38:09.293Z,99192.56
2022-12-25T14:40:37.397Z,99212.22
2022-12-25T14:43:05.199Z,99202.81
2022-12-25T14:45:33.163Z,99204.94
2022-12-25T14:48:01.184Z,99214.78
2022-12-25T14:50:29.505Z,99213.22
2022-12-25T14:52:57.580Z,99212.69
2022-12-25T14:55:25.562Z,99204.81
2022-12-25T14:57:53.833Z,99225.31
2022-12-25T15:00:21.873Z,99213.94
2022-12-25T15:02:50.441Z,99215.06
2022-12-25T15:05:18.474Z,99211.56
2022-12-25T15:07:46.385Z,99216.19
2022-12-25T15:10:58.032Z,99197.66
2022-12-25T15:13:02.453Z,99205.84
2022-12-25T15:15:30.327Z,99221.13
2022-12-25T15:17:58.219Z,99221.13
2022-12-25T15:20:26.311Z,99223.94
2022-12-25T15:23:18.609Z,99220.28
2022-12-25T15:25:42.491Z,99204.13
2022-12-25T15:28:13.044Z,99204.00
2022-12-25T15:30:41.271Z,99210.19
2022-12-25T15:33:09.082Z,99206.38
2022-12-25T15:35:39.285Z,99201.75
2022-12-25T15:38:07.454Z,99193.75
2022-12-25T15:40:35.596Z,99191.06
2022-12-25T15:43:11.191Z,99184.63
2022-12-25T15:45:48.854Z,99187.69
2022-12-25T15:48:16.851Z,99187.13
2022-12-25T15:50:44.758Z,99190.72
2022-12-25T15:53:13.031Z,99180.31
2022-12-25T15:55:40.882Z,99181.69
2022-12-25T15:58:08.580Z,99168.34
2022-12-25T16:00:37.156Z,99167.66
2022-12-25T16:03:05.172Z,99173.97
2022-12-25T16:05:33.282Z,99178.94
2022-12-25T16:08:01.018Z,99174.00
2022-12-25T16:10:33.437Z,99177.00
2022-12-25T16:13:05.167Z,99178.81
2022-12-25T16:15:33.225Z,99159.31
2022-12-25T16:18:01.420Z,99163.53
2022-12-25T16:20:29.270Z,99172.34
2022-12-25T16:22:57.248Z,99176.53
2022-12-25T16:25:25.733Z,99173.28
2022-12-25T16:27:53.702Z,99174.66
2022-12-25T16:30:21.951Z,99160.34
2022-12-25T16:32:49.895Z,99155.41
2022-12-25T16:35:18.086Z,99160.13
2022-12-25T16:37:46.456Z,99154.66
2022-12-25T16:40:14.278Z,99157.16
2022-12-25T16:42:43.894Z,99152.81
2022-12-25T16:45:11.901Z,99159.00
2022-12-25T16:47:39.786Z,99148.34
2022-12-25T16:50:08.113Z,99152.00
2022-12-25T16:52:35.971Z,99146.47
2022-12-25T16:55:04.034Z,99148.88
2022-12-25T16:57:31.863Z,99143.22
2022-12-25T17:00:00.410Z,99146.44
2022-12-25T17:02:28.639Z,99152.97
2022-12-25T17:04:57.035Z,99159.84
2022-12-25T17:07:25.340Z,99136.53
2022-12-25T17:09:53.230Z,99136.09
2022-12-25T17:12:21.206Z,99131.09
2022-12-25T17:14:49.587Z,99125.47
2022-12-25T17:17:17.412Z,99139.50
2022-12-25T17:19:45.248Z,99126.84
2022-12-25T17:22:13.239Z,99131.72
2022-12-25T17:24:41.749Z,99128.75
2022-12-25T17:27:10.367Z,99122.28
2022-12-25T17:29:39.428Z,99135.44
2022-12-25T17:32:07.427Z,99127.44
2022-12-25T17:34:35.119Z,99136.16
2022-12-25T17:37:03.037Z,99138.66
2022-12-25T17:39:31.228Z,99131.16
2022-12-25T17:41:59.173Z,99141.56
2022-12-25T17:44:27.627Z,99154.47
2022-12-25T17:46:55.432Z,99131.41
2022-12-25T17:49:23.271Z,99141.31
2022-12-25T17:51:51.640Z,99139.25
2022-12-25T17:54:19.526Z,99126.53
2022-12-25T17:56:48.158Z,99125.84
2022-12-25T17:59:18.983Z,99139.81
2022-12-25T18:01:47.413Z,99147.97
2022-12-25T18:04:15.349Z,99132.25
2022-12-25T18:06:43.443Z,99143.09
2022-12-25T18:09:11.535Z,99140.72
2022-12-25T18:11:39.814Z,99149.03
2022-12-25T18:14:07.656Z,99144.97
2022-12-25T18:16:35.943Z,99151.63
2022-12-25T18:19:03.900Z,99154.88
2022-12-25T18:21:32.241Z,99153.34
2022-12-25T18:24:00.341Z,99161.53
2022-12-25T18:26:28.996Z,99157.88
2022-12-25T18:28:57.507Z,99144.53
2022-12-25T18:31:25.372Z,99164.28
2022-12-25T18:33:54.457Z,99153.53
2022-12-25T18:36:22.402Z,99145.75
2022-12-25T18:38:50.205Z,99139.81
2022-12-25T18:41:18.542Z,99142.84
2022-12-25T18:43:52.947Z,99143.94
2022-12-25T18:46:24.807Z,99133.63
2022-12-25T18:48:53.032Z,99131.63
2022-12-25T18:51:21.443Z,99126.97
2022-12-25T18:53:49.279Z,99132.03
2022-12-25T18:56:17.857Z,99132.69
2022-12-25T18:58:46.355Z,99133.22
2022-12-25T19:01:14.190Z,99125.91
2022-12-25T19:03:42.598Z,99135.28
2022-12-25T19:06:10.301Z,99135.81
2022-12-25T19:08:38.063Z,99121.47
2022-12-25T19:11:05.830Z,99129.16
2022-12-25T19:13:33.673Z,99128.88
2022-12-25T19:16:02.257Z,99135.75
2022-12-25T19:18:30.251Z,99145.25
2022-12-25T19:20:58.130Z,99141.44
2022-12-25T19:23:26.118Z,99141.97
2022-12-25T19:25:54.026Z,99132.81
2022-12-25T19:28:21.871Z,99128.13
2022-12-25T19:30:49.739Z,99144.72
2022-12-25T19:33:18.183Z,99150.91
2022-12-25T19:35:47.014Z,99145.56
2022-12-25T19:38:15.369Z,99148.38
2022-12-25T19:41:00.613Z,99142.06
2022-12-25T19:43:28.799Z,99146.25
2022-12-25T19:45:56.694Z,99148.78
2022-12-25T19:48:24.588Z,99152.59
2022-12-25T19:50:52.441Z,99152.19
2022-12-25T19:53:23.618Z,99154.06
2022-12-25T19:55:52.669Z,99163.91
2022-12-25T19:58:22.444Z,99166.28
2022-12-25T20:00:50.288Z,99189.84
2022-12-25T20:03:18.255Z,99172.91
2022-12-25T20:05:46.555Z,99181.66
2022-12-25T20:08:14.369Z,99178.09
2022-12-25T20:10:42.522Z,99184.16
2022-12-25T20:13:10.412Z,99187.41
2022-12-25T20:15:38.190Z,99187.03
2022-12-25T20:18:06.868Z,99181.28
2022-12-25T20:20:34.702Z,99184.41
2022-12-25T20:23:03.076Z,99183.88
2022-12-25T20:25:30.875Z,99188.78
2022-12-25T20:27:58.754Z,99177.56
2022-12-25T20:30:27.212Z,99181.38
2022-12-25T20:32:55.668Z,99188.69
2022-12-25T20:35:24.204Z,99191.63
2022-12-25T20:37:51.908Z,99202.28
2022-12-25T20:40:20.636Z,99200.63
2022-12-25T20:42:49.112Z,99188.25
2022-12-25T20:45:16.975Z,99192.75
2022-12-25T20:47:44.984Z,99191.06
2022-12-25T20:50:12.831Z,99183.22
2022-12-25T20:52:40.658Z,99194.88
2022-12-25T20:55:08.912Z,99194.00
2022-12-25T20:57:37.029Z,99197.53
2022-12-25T21:00:05.274Z,99201.19
2022-12-25T21:02:34.635Z,99202.00
2022-12-25T21:05:04.426Z,99207.22
2022-12-25T21:07:32.708Z,99194.72
2022-12-25T21:10:00.757Z,99174.22
2022-12-25T21:12:28.850Z,99183.75
2022-12-25T21:14:56.627Z,99191.63
2022-12-25T21:17:24.585Z,99195.69
2022-12-25T21:19:52.829Z,99182.09
2022-12-25T21:22:20.620Z,99190.47
2022-12-25T21:24:52.194Z,99185.69
2022-12-25T21:27:20.417Z,99196.06
2022-12-25T21:29:48.306Z,99201.94
2022-12-25T21:32:33.863Z,99194.63
2022-12-25T21:35:02.018Z,99188.16
2022-12-25T21:37:29.871Z,99181.84
2022-12-25T21:39:57.835Z,99190.66
2022-12-25T21:42:26.145Z,99190.66
2022-12-25T21:44:54.433Z,99206.66
2022-12-25T21:47:22.499Z,99194.31
2022-12-25T21:50:13.311Z,99194.31
2022-12-25T21:52:41.209Z,99197.72
2022-12-25T21:55:09.689Z,99199.38
2022-12-25T21:57:37.700Z,99208.38
2022-12-25T22:00:05.594Z,99193.50
2022-12-25T22:02:33.610Z,99187.63
2022-12-25T22:05:01.601Z,99190.72
2022-12-25T22:07:29.388Z,99184.00
2022-12-25T22:09:57.561Z,99183.44
2022-12-25T22:12:42.826Z,99202.44
2022-12-25T22:15:10.663Z,99203.69
2022-12-25T22:17:57.033Z,99194.16
2022-12-25T22:20:25.056Z,99218.28
2022-12-25T22:22:52.879Z,99235.28
2022-12-25T22:25:20.728Z,99225.56
2022-12-25T22:27:48.842Z,99243.41
2022-12-25T22:30:16.944Z,99236.41
2022-12-25T22:32:44.833Z,99252.53
2022-12-25T22:35:13.649Z,99254.38
2022-12-25T22:37:41.557Z,99244.84
2022-12-25T22:40:09.329Z,99236.28
2022-12-25T22:42:37.733Z,99230.97
2022-12-25T22:45:05.517Z,99257.06
2022-12-25T22:47:33.419Z,99242.06
2022-12-25T22:50:01.173Z,99242.50
2022-12-25T22:52:28.933Z,99246.28
2022-12-25T22:54:57.103Z,99250.91
2022-12-25T22:57:24.972Z,99238.72
2022-12-25T22:59:53.066Z,99241.66
2022-12-25T23:02:21.334Z,99254.28
2022-12-25T23:04:49.307Z,99259.06
2022-12-25T23:07:17.482Z,99262.03
2022-12-25T23:09:45.367Z,99266.81
2022-12-25T23:12:33.722Z,99259.94
2022-12-25T23:15:00.444Z,99256.28
2022-12-25T23:17:45.961Z,99262.59
2022-12-25T23:20:30.505Z,99255.59
2022-12-25T23:23:15.405Z,99247.59
2022-12-25T23:26:00.445Z,99258.25
2022-12-25T23:28:45.728Z,99268.91
2022-12-25T23:31:13.609Z,99262.59
2022-12-25T23:33:41.714Z,99271.56
2022-12-25T23:36:09.473Z,99264.41
2022-12-25T23:38:37.222Z,99264.41
2022-12-25T23:41:05.308Z,99264.25
2022-12-25T23:43:33.383Z,99276.47
2022-12-25T23:46:01.310Z,99280.69
2022-12-25T23:48:29.052Z,99271.53
2022-12-25T23:50:56.704Z,99277.59
2022-12-25T23:53:24.871Z,99278.41
2022-12-25T23:55:55.953Z,99266.75
2022-12-25T23:58:23.833Z,99272.09
